createdAt,value
2022-09-12T00:03:41.984Z,5.93
2022-09-12T00:08:44.187Z,6.43
2022-09-12T00:13:45.800Z,8.70
2022-09-12T00:18:47.970Z,7.53
2022-09-12T00:23:50.697Z,9.75
2022-09-12T00:28:52.503Z,10.20
2022-09-12T00:33:58.749Z,12.50
2022-09-12T00:39:00.699Z,12.13
2022-09-12T00:44:25.201Z,12.15
2022-09-12T00:49:44.078Z,12.88
2022-09-12T00:54:58.160Z,14.33
2022-09-12T01:00:10.260Z,12.57
2022-09-12T01:05:14.066Z,13.77
2022-09-12T01:10:16.174Z,14.60
2022-09-12T01:15:19.863Z,14.38
2022-09-12T01:20:36.817Z,13.85
2022-09-12T01:26:08.078Z,14.73
2022-09-12T01:31:32.881Z,14.82
2022-09-12T01:36:45.959Z,15.05
2022-09-12T01:42:10.322Z,15.18
2022-09-12T01:47:25.136Z,14.52
2022-09-12T01:52:35.017Z,14.35
2022-09-12T01:57:55.303Z,14.77
2022-09-12T02:03:03.026Z,15.13
2022-09-12T02:08:38.529Z,14.82
2022-09-12T02:13:43.199Z,13.73
2022-09-12T02:18:52.271Z,13.70
2022-09-12T02:23:58.838Z,15.10
2022-09-12T02:29:00.501Z,14.05
2022-09-12T02:34:29.615Z,14.40
2022-09-12T02:39:31.995Z,14.82
2022-09-12T02:44:35.654Z,14.88
2022-09-12T02:49:37.377Z,14.30
2022-09-12T02:54:39.686Z,15.55
2022-09-12T02:59:41.362Z,14.20
2022-09-12T03:05:10.357Z,15.05
2022-09-12T03:10:28.698Z,15.00
2022-09-12T03:16:19.924Z,15.77
2022-09-12T03:21:54.882Z,15.88
2022-09-12T03:27:03.856Z,14.75
2022-09-12T03:32:05.486Z,14.98
2022-09-12T03:37:07.225Z,15.85
2022-09-12T03:42:08.914Z,15.25
2022-09-12T03:47:11.422Z,15.55
2022-09-12T03:52:13.077Z,15.45
2022-09-12T03:57:15.437Z,16.08
2022-09-12T04:02:17.561Z,16.88
2022-09-12T04:07:19.390Z,16.90
2022-09-12T04:12:23.239Z,15.02
2022-09-12T04:17:24.797Z,15.35
2022-09-12T04:22:26.571Z,15.95
2022-09-12T04:27:28.345Z,14.98
2022-09-12T04:32:31.282Z,15.30
2022-09-12T04:37:32.994Z,15.73
2022-09-12T04:42:34.622Z,16.00
2022-09-12T04:47:36.279Z,15.70
2022-09-12T04:52:37.851Z,14.10
2022-09-12T04:57:39.893Z,15.10
2022-09-12T05:02:42.182Z,16.20
2022-09-12T05:07:43.832Z,15.52
2022-09-12T05:12:45.577Z,15.82
2022-09-12T05:17:47.197Z,16.35
2022-09-12T05:22:48.807Z,15.95
2022-09-12T05:27:52.865Z,16.38
2022-09-12T05:32:54.502Z,17.17
2022-09-12T05:37:56.134Z,16.90
2022-09-12T05:42:57.739Z,17.95
2022-09-12T05:47:59.346Z,17.95
2022-09-12T05:53:01.568Z,16.23
2022-09-12T05:58:03.317Z,16.50
2022-09-12T06:03:05.297Z,17.52
2022-09-12T06:08:07.114Z,16.55
2022-09-12T06:13:08.711Z,16.70
2022-09-12T06:18:10.374Z,16.75
2022-09-12T06:23:12.718Z,18.35
2022-09-12T06:28:14.357Z,17.40
2022-09-12T06:33:16.229Z,17.58
2022-09-12T06:38:18.484Z,16.30
2022-09-12T06:43:20.223Z,17.42
2022-09-12T06:48:23.850Z,18.35
2022-09-12T06:53:26.897Z,16.77
2022-09-12T06:58:29.746Z,18.17
2022-09-12T07:03:32.882Z,18.15
2022-09-12T07:08:35.921Z,17.55
2022-09-12T07:13:38.679Z,17.55
2022-09-12T07:18:40.522Z,19.50
2022-09-12T07:23:42.923Z,18.42
2022-09-12T07:28:44.963Z,17.42
2022-09-12T07:33:51.181Z,18.38
2022-09-12T07:38:57.735Z,19.10
2022-09-12T07:44:01.902Z,16.77
2022-09-12T07:49:03.678Z,16.92
2022-09-12T07:54:09.953Z,16.60
2022-09-12T07:59:11.696Z,17.02
2022-09-12T08:04:13.315Z,17.40
2022-09-12T08:09:17.527Z,18.35
2022-09-12T08:14:19.134Z,16.50
2022-09-12T08:19:22.811Z,17.52
2022-09-12T08:24:24.999Z,17.38
2022-09-12T08:29:26.628Z,15.77
2022-09-12T08:34:28.257Z,14.98
2022-09-12T08:39:29.838Z,14.13
2022-09-12T08:44:53.635Z,14.10
2022-09-12T08:50:00.956Z,15.68
2022-09-12T08:55:03.686Z,16.35
2022-09-12T09:00:07.439Z,23.25
2022-09-12T09:05:51.566Z,27.25
2022-09-12T09:11:14.672Z,27.20
2022-09-12T09:16:35.002Z,16.73
2022-09-12T09:21:57.536Z,20.25
2022-09-12T09:27:36.812Z,19.05
2022-09-12T09:32:41.532Z,11.18
2022-09-12T09:37:55.560Z,12.52
2022-09-12T09:43:03.507Z,11.93
2022-09-12T09:48:26.539Z,11.98
2022-09-12T09:53:53.110Z,12.85
2022-09-12T09:58:54.863Z,11.82
2022-09-12T10:03:56.921Z,12.13
2022-09-12T10:09:27.475Z,11.18
2022-09-12T10:14:41.608Z,11.73
2022-09-12T10:19:43.330Z,11.48
2022-09-12T10:24:52.568Z,9.20
2022-09-12T10:30:01.995Z,8.82
2022-09-12T10:35:16.098Z,7.90
2022-09-12T10:40:34.274Z,8.07
2022-09-12T10:45:37.986Z,5.82
2022-09-12T10:50:41.716Z,5.35
2022-09-12T10:55:57.945Z,5.55
2022-09-12T11:01:15.432Z,5.60
2022-09-12T11:06:23.230Z,6.53
2022-09-12T11:11:54.853Z,6.43
2022-09-12T11:17:02.524Z,6.05
2022-09-12T11:22:16.101Z,6.03
2022-09-12T11:27:47.398Z,7.03
2022-09-12T11:32:54.877Z,5.00
2022-09-12T11:38:36.386Z,4.50
2022-09-12T11:43:46.875Z,3.97
2022-09-12T11:48:57.702Z,5.35
2022-09-12T11:54:13.262Z,9.65
2022-09-12T11:59:32.831Z,8.23
2022-09-12T12:04:45.921Z,5.60
2022-09-12T12:09:52.278Z,5.25
2022-09-12T12:14:56.473Z,3.03
2022-09-12T12:20:06.497Z,3.53
2022-09-12T12:25:20.848Z,3.72
2022-09-12T12:30:29.502Z,3.00
2022-09-12T12:35:46.247Z,3.10
2022-09-12T12:40:47.898Z,4.07
2022-09-12T12:46:00.493Z,3.40
2022-09-12T12:51:29.686Z,3.55
2022-09-12T12:56:34.693Z,3.27
2022-09-12T13:01:41.182Z,4.68
2022-09-12T13:07:08.841Z,3.40
2022-09-12T13:12:19.671Z,3.10
2022-09-12T13:17:40.014Z,3.03
2022-09-12T13:22:52.243Z,3.10
2022-09-12T13:28:12.012Z,2.60
2022-09-12T13:33:19.956Z,2.50
2022-09-12T13:39:02.874Z,3.20
2022-09-12T13:44:09.899Z,2.17
2022-09-12T13:49:31.069Z,3.05
2022-09-12T13:54:38.985Z,2.55
2022-09-12T13:59:42.710Z,2.20
2022-09-12T14:05:09.368Z,2.40
2022-09-12T14:10:20.009Z,2.20
2022-09-12T14:15:25.636Z,2.45
2022-09-12T14:20:32.445Z,2.97
2022-09-12T14:25:41.556Z,2.65
2022-09-12T14:31:07.565Z,2.92
2022-09-12T14:36:12.076Z,3.60
2022-09-12T14:41:21.683Z,3.65
2022-09-12T14:46:31.620Z,2.85
2022-09-12T14:51:36.355Z,3.50
2022-09-12T14:56:53.835Z,3.42
2022-09-12T15:02:14.373Z,3.38
2022-09-12T15:07:50.355Z,3.05
2022-09-12T15:13:10.146Z,3.30
2022-09-12T15:18:12.256Z,3.40
2022-09-12T15:23:35.075Z,3.13
2022-09-12T15:28:36.824Z,3.35
2022-09-12T15:33:38.508Z,3.28
2022-09-12T15:38:40.103Z,3.50
2022-09-12T15:43:41.965Z,3.33
2022-09-12T15:48:43.897Z,3.60
2022-09-12T15:53:47.489Z,4.15
2022-09-12T15:58:58.717Z,3.70
2022-09-12T16:04:03.384Z,3.78
2022-09-12T16:09:05.096Z,3.63
2022-09-12T16:14:07.355Z,3.75
2022-09-12T16:19:10.015Z,3.72
2022-09-12T16:24:11.728Z,3.40
2022-09-12T16:29:14.519Z,3.55
2022-09-12T16:34:16.123Z,3.30
2022-09-12T16:39:17.713Z,3.13
2022-09-12T16:44:19.350Z,3.35
2022-09-12T16:49:21.737Z,4.15
2022-09-12T16:54:23.812Z,3.78
2022-09-12T16:59:25.423Z,3.83
2022-09-12T17:04:27.157Z,3.65
2022-09-12T17:09:29.459Z,4.00
2022-09-12T17:14:31.204Z,3.30
2022-09-12T17:19:33.088Z,3.70
2022-09-12T17:24:34.902Z,3.78
2022-09-12T17:29:37.169Z,5.00
2022-09-12T17:34:39.162Z,4.03
2022-09-12T17:39:41.108Z,4.43
2022-09-12T17:44:42.850Z,4.10
2022-09-12T17:49:44.960Z,3.70
2022-09-12T17:54:46.707Z,4.22
2022-09-12T17:59:48.400Z,4.25
2022-09-12T18:04:50.296Z,4.00
2022-09-12T18:09:51.886Z,4.78
2022-09-12T18:14:53.543Z,4.22
2022-09-12T18:19:55.336Z,5.45
2022-09-12T18:24:56.977Z,4.82
2022-09-12T18:30:19.702Z,4.80
2022-09-12T18:35:20.308Z,4.97
2022-09-12T18:40:22.073Z,6.00
2022-09-12T18:45:23.742Z,4.88
2022-09-12T18:50:25.395Z,5.72
2022-09-12T18:55:27.124Z,5.43
2022-09-12T19:00:28.808Z,4.20
2022-09-12T19:05:30.383Z,4.90
2022-09-12T19:10:32.007Z,5.88
2022-09-12T19:15:33.733Z,5.22
2022-09-12T19:20:37.000Z,6.70
2022-09-12T19:25:39.662Z,7.53
2022-09-12T19:30:47.285Z,8.57
2022-09-12T19:35:50.149Z,6.15
2022-09-12T19:40:59.770Z,5.60
2022-09-12T19:46:02.172Z,5.35
2022-09-12T19:51:05.090Z,5.80
2022-09-12T19:56:08.818Z,5.72
2022-09-12T20:01:14.358Z,6.82
2022-09-12T20:06:17.666Z,8.10
2022-09-12T20:11:21.520Z,7.50
2022-09-12T20:16:26.271Z,7.82
2022-09-12T20:21:31.850Z,7.22
2022-09-12T20:26:34.393Z,7.00
2022-09-12T20:31:37.907Z,8.00
2022-09-12T20:36:39.858Z,7.88
2022-09-12T20:41:41.805Z,8.40
2022-09-12T20:46:43.535Z,8.30
2022-09-12T20:51:45.250Z,9.38
2022-09-12T20:56:47.047Z,10.98
2022-09-12T21:01:49.386Z,11.85
2022-09-12T21:06:51.162Z,11.90
2022-09-12T21:11:52.852Z,12.25
2022-09-12T21:16:54.719Z,12.60
2022-09-12T21:21:56.537Z,12.32
2022-09-12T21:27:03.502Z,12.75
2022-09-12T21:32:06.126Z,12.55
2022-09-12T21:37:07.778Z,12.88
2022-09-12T21:42:09.390Z,13.60
2022-09-12T21:47:11.260Z,11.95
2022-09-12T21:52:12.995Z,11.35
2022-09-12T21:57:14.598Z,12.65
2022-09-12T22:02:16.561Z,11.18
2022-09-12T22:07:18.245Z,10.05
2022-09-12T22:12:20.102Z,9.43
2022-09-12T22:17:22.527Z,9.40
2022-09-12T22:22:43.124Z,9.77
2022-09-12T22:27:44.780Z,9.18
2022-09-12T22:32:48.289Z,9.13
2022-09-12T22:37:49.842Z,9.23
2022-09-12T22:42:52.686Z,9.27
2022-09-12T22:47:54.207Z,9.40
2022-09-12T22:53:12.484Z,10.10
2022-09-12T22:58:51.714Z,8.82
2022-09-12T23:03:53.945Z,8.68
2022-09-12T23:08:56.323Z,8.63
2022-09-12T23:13:58.051Z,8.05
2022-09-12T23:18:59.774Z,8.20
2022-09-12T23:24:01.647Z,7.70
2022-09-12T23:29:05.734Z,8.43
2022-09-12T23:34:07.412Z,8.25
2022-09-12T23:39:09.597Z,8.88
2022-09-12T23:44:11.238Z,8.73
2022-09-12T23:49:12.862Z,9.02
2022-09-12T23:54:14.729Z,8.98
2022-09-12T23:59:16.281Z,7.88
